sensor_id;sensor_type;location;lat;lon;timestamp;P1;durP1;ratioP1;P2;durP2;ratioP2
21168;SDS011;10742;51.816;8.662;2023-04-19T00:00:52;8.53;;;3.83;;
21168;SDS011;10742;51.816;8.662;2023-04-19T00:04:13;7.17;;;3.70;;
21168;SDS011;10742;51.816;8.662;2023-04-19T00:07:35;8.67;;;3.60;;
21168;SDS011;10742;51.816;8.662;2023-04-19T00:10:56;7.13;;;3.60;;
21168;SDS011;10742;51.816;8.662;2023-04-19T00:14:18;6.83;;;3.70;;
21168;SDS011;10742;51.816;8.662;2023-04-19T00:17:39;6.23;;;3.43;;
21168;SDS011;10742;51.816;8.662;2023-04-19T00:21:01;6.63;;;3.23;;
21168;SDS011;10742;51.816;8.662;2023-04-19T00:24:23;6.20;;;3.30;;
21168;SDS011;10742;51.816;8.662;2023-04-19T00:27:25;8.90;;;3.57;;
21168;SDS011;10742;51.816;8.662;2023-04-19T00:30:28;6.33;;;3.33;;
21168;SDS011;10742;51.816;8.662;2023-04-19T00:33:32;6.90;;;3.70;;
21168;SDS011;10742;51.816;8.662;2023-04-19T00:36:34;8.23;;;3.80;;
21168;SDS011;10742;51.816;8.662;2023-04-19T00:39:37;7.43;;;3.60;;
21168;SDS011;10742;51.816;8.662;2023-04-19T00:42:39;7.07;;;3.47;;
21168;SDS011;10742;51.816;8.662;2023-04-19T00:45:43;8.73;;;3.90;;
21168;SDS011;10742;51.816;8.662;2023-04-19T00:48:46;10.27;;;3.70;;
21168;SDS011;10742;51.816;8.662;2023-04-19T00:51:50;6.93;;;3.50;;
21168;SDS011;10742;51.816;8.662;2023-04-19T00:54:53;8.17;;;3.60;;
21168;SDS011;10742;51.816;8.662;2023-04-19T00:57:58;6.80;;;3.43;;
21168;SDS011;10742;51.816;8.662;2023-04-19T01:01:01;9.70;;;3.67;;
21168;SDS011;10742;51.816;8.662;2023-04-19T01:04:04;9.10;;;4.00;;
21168;SDS011;10742;51.816;8.662;2023-04-19T01:07:07;9.13;;;3.67;;
21168;SDS011;10742;51.816;8.662;2023-04-19T01:10:10;6.13;;;3.57;;
21168;SDS011;10742;51.816;8.662;2023-04-19T01:13:12;8.73;;;3.60;;
21168;SDS011;10742;51.816;8.662;2023-04-19T01:16:15;8.03;;;4.10;;
21168;SDS011;10742;51.816;8.662;2023-04-19T01:19:17;6.60;;;3.57;;
21168;SDS011;10742;51.816;8.662;2023-04-19T01:22:20;7.23;;;3.90;;
21168;SDS011;10742;51.816;8.662;2023-04-19T01:25:23;7.97;;;4.13;;
21168;SDS011;10742;51.816;8.662;2023-04-19T01:28:27;9.87;;;3.90;;
21168;SDS011;10742;51.816;8.662;2023-04-19T01:31:29;8.87;;;4.13;;
21168;SDS011;10742;51.816;8.662;2023-04-19T01:34:32;10.30;;;3.70;;
21168;SDS011;10742;51.816;8.662;2023-04-19T01:37:34;7.63;;;3.73;;
21168;SDS011;10742;51.816;8.662;2023-04-19T01:40:37;8.40;;;3.97;;
21168;SDS011;10742;51.816;8.662;2023-04-19T01:43:40;8.53;;;3.87;;
21168;SDS011;10742;51.816;8.662;2023-04-19T01:46:42;7.80;;;3.67;;
21168;SDS011;10742;51.816;8.662;2023-04-19T01:49:46;9.17;;;4.20;;
21168;SDS011;10742;51.816;8.662;2023-04-19T01:52:49;7.33;;;3.80;;
21168;SDS011;10742;51.816;8.662;2023-04-19T01:55:52;7.73;;;3.70;;
21168;SDS011;10742;51.816;8.662;2023-04-19T01:58:55;8.33;;;3.70;;
21168;SDS011;10742;51.816;8.662;2023-04-19T02:01:58;7.77;;;4.17;;
21168;SDS011;10742;51.816;8.662;2023-04-19T02:05:00;7.00;;;3.83;;
21168;SDS011;10742;51.816;8.662;2023-04-19T02:08:03;8.23;;;4.10;;
21168;SDS011;10742;51.816;8.662;2023-04-19T02:11:09;8.17;;;3.80;;
21168;SDS011;10742;51.816;8.662;2023-04-19T02:14:12;7.97;;;4.00;;
21168;SDS011;10742;51.816;8.662;2023-04-19T02:17:15;9.47;;;4.17;;
21168;SDS011;10742;51.816;8.662;2023-04-19T02:20:17;8.43;;;4.10;;
21168;SDS011;10742;51.816;8.662;2023-04-19T02:23:20;7.03;;;4.07;;
21168;SDS011;10742;51.816;8.662;2023-04-19T02:26:22;7.77;;;4.10;;
21168;SDS011;10742;51.816;8.662;2023-04-19T02:29:25;8.30;;;4.00;;
21168;SDS011;10742;51.816;8.662;2023-04-19T02:32:28;9.47;;;3.87;;
21168;SDS011;10742;51.816;8.662;2023-04-19T02:35:30;10.93;;;4.93;;
21168;SDS011;10742;51.816;8.662;2023-04-19T02:38:33;8.90;;;4.40;;
21168;SDS011;10742;51.816;8.662;2023-04-19T02:41:35;7.83;;;3.93;;
21168;SDS011;10742;51.816;8.662;2023-04-19T02:44:38;8.67;;;4.33;;
21168;SDS011;10742;51.816;8.662;2023-04-19T02:47:41;10.50;;;4.40;;
21168;SDS011;10742;51.816;8.662;2023-04-19T02:50:43;9.90;;;4.60;;
21168;SDS011;10742;51.816;8.662;2023-04-19T02:53:46;10.10;;;4.67;;
21168;SDS011;10742;51.816;8.662;2023-04-19T02:56:48;10.23;;;4.60;;
21168;SDS011;10742;51.816;8.662;2023-04-19T02:59:51;15.93;;;5.37;;
21168;SDS011;10742;51.816;8.662;2023-04-19T03:02:54;13.10;;;5.23;;
21168;SDS011;10742;51.816;8.662;2023-04-19T03:05:57;11.17;;;4.80;;
21168;SDS011;10742;51.816;8.662;2023-04-19T03:09:01;11.20;;;4.67;;
21168;SDS011;10742;51.816;8.662;2023-04-19T03:12:04;10.60;;;4.83;;
21168;SDS011;10742;51.816;8.662;2023-04-19T03:15:08;9.37;;;4.20;;
21168;SDS011;10742;51.816;8.662;2023-04-19T03:18:11;11.63;;;4.23;;
21168;SDS011;10742;51.816;8.662;2023-04-19T03:21:16;9.90;;;4.30;;
21168;SDS011;10742;51.816;8.662;2023-04-19T03:24:30;8.40;;;4.10;;
21168;SDS011;10742;51.816;8.662;2023-04-19T03:27:47;9.90;;;4.33;;
21168;SDS011;10742;51.816;8.662;2023-04-19T03:30:54;10.90;;;4.33;;
21168;SDS011;10742;51.816;8.662;2023-04-19T03:33:57;8.07;;;3.97;;
21168;SDS011;10742;51.816;8.662;2023-04-19T03:37:05;7.90;;;3.77;;
21168;SDS011;10742;51.816;8.662;2023-04-19T03:40:08;7.97;;;4.13;;
21168;SDS011;10742;51.816;8.662;2023-04-19T03:43:11;10.43;;;4.07;;
21168;SDS011;10742;51.816;8.662;2023-04-19T03:46:14;8.97;;;3.63;;
21168;SDS011;10742;51.816;8.662;2023-04-19T03:49:17;8.07;;;3.53;;
21168;SDS011;10742;51.816;8.662;2023-04-19T03:52:24;9.40;;;4.07;;
21168;SDS011;10742;51.816;8.662;2023-04-19T03:55:28;11.00;;;3.83;;
21168;SDS011;10742;51.816;8.662;2023-04-19T03:58:32;8.03;;;4.00;;
21168;SDS011;10742;51.816;8.662;2023-04-19T04:01:39;10.33;;;4.00;;
21168;SDS011;10742;51.816;8.662;2023-04-19T04:04:43;8.03;;;3.67;;
21168;SDS011;10742;51.816;8.662;2023-04-19T04:07:46;8.80;;;3.70;;
21168;SDS011;10742;51.816;8.662;2023-04-19T04:10:48;6.80;;;3.30;;
21168;SDS011;10742;51.816;8.662;2023-04-19T04:13:51;11.03;;;3.50;;
21168;SDS011;10742;51.816;8.662;2023-04-19T04:16:58;11.73;;;3.67;;
21168;SDS011;10742;51.816;8.662;2023-04-19T04:20:01;7.23;;;3.20;;
21168;SDS011;10742;51.816;8.662;2023-04-19T04:23:05;11.60;;;3.47;;
21168;SDS011;10742;51.816;8.662;2023-04-19T04:26:09;5.50;;;3.20;;
21168;SDS011;10742;51.816;8.662;2023-04-19T04:29:34;9.03;;;3.50;;
21168;SDS011;10742;51.816;8.662;2023-04-19T04:32:40;7.33;;;3.30;;
21168;SDS011;10742;51.816;8.662;2023-04-19T04:35:43;7.10;;;2.83;;
21168;SDS011;10742;51.816;8.662;2023-04-19T04:38:51;8.80;;;3.37;;
21168;SDS011;10742;51.816;8.662;2023-04-19T04:41:55;5.87;;;2.90;;
21168;SDS011;10742;51.816;8.662;2023-04-19T04:45:00;6.13;;;2.80;;
21168;SDS011;10742;51.816;8.662;2023-04-19T04:48:05;8.07;;;2.87;;
21168;SDS011;10742;51.816;8.662;2023-04-19T04:51:10;7.27;;;2.83;;
21168;SDS011;10742;51.816;8.662;2023-04-19T04:54:15;5.50;;;2.80;;
21168;SDS011;10742;51.816;8.662;2023-04-19T04:57:19;7.67;;;2.77;;
21168;SDS011;10742;51.816;8.662;2023-04-19T05:00:22;9.07;;;2.90;;
21168;SDS011;10742;51.816;8.662;2023-04-19T05:03:34;7.83;;;2.80;;
21168;SDS011;10742;51.816;8.662;2023-04-19T05:06:40;6.40;;;2.50;;
21168;SDS011;10742;51.816;8.662;2023-04-19T05:09:44;7.27;;;2.97;;
21168;SDS011;10742;51.816;8.662;2023-04-19T05:12:54;6.77;;;2.63;;
21168;SDS011;10742;51.816;8.662;2023-04-19T05:15:57;5.73;;;2.70;;
21168;SDS011;10742;51.816;8.662;2023-04-19T05:18:59;5.13;;;2.63;;
21168;SDS011;10742;51.816;8.662;2023-04-19T05:22:06;7.00;;;2.70;;
21168;SDS011;10742;51.816;8.662;2023-04-19T05:25:12;7.47;;;2.83;;
21168;SDS011;10742;51.816;8.662;2023-04-19T05:28:15;4.70;;;2.50;;
21168;SDS011;10742;51.816;8.662;2023-04-19T05:31:30;6.60;;;2.90;;
21168;SDS011;10742;51.816;8.662;2023-04-19T05:34:44;7.07;;;2.97;;
21168;SDS011;10742;51.816;8.662;2023-04-19T05:37:49;6.83;;;2.93;;
21168;SDS011;10742;51.816;8.662;2023-04-19T05:40:51;7.93;;;2.70;;
21168;SDS011;10742;51.816;8.662;2023-04-19T05:43:54;4.47;;;2.70;;
21168;SDS011;10742;51.816;8.662;2023-04-19T05:46:57;6.33;;;3.00;;
21168;SDS011;10742;51.816;8.662;2023-04-19T05:50:23;8.67;;;3.00;;
21168;SDS011;10742;51.816;8.662;2023-04-19T05:53:45;5.23;;;2.67;;
21168;SDS011;10742;51.816;8.662;2023-04-19T05:56:48;5.00;;;2.73;;
21168;SDS011;10742;51.816;8.662;2023-04-19T05:59:50;5.47;;;2.60;;
21168;SDS011;10742;51.816;8.662;2023-04-19T06:02:57;4.53;;;2.40;;
21168;SDS011;10742;51.816;8.662;2023-04-19T06:06:00;24.20;;;5.27;;
21168;SDS011;10742;51.816;8.662;2023-04-19T06:09:03;33.03;;;6.30;;
21168;SDS011;10742;51.816;8.662;2023-04-19T06:12:07;8.23;;;3.23;;
21168;SDS011;10742;51.816;8.662;2023-04-19T06:15:10;7.93;;;3.30;;
21168;SDS011;10742;51.816;8.662;2023-04-19T06:18:13;8.07;;;3.40;;
21168;SDS011;10742;51.816;8.662;2023-04-19T06:21:15;8.73;;;3.03;;
21168;SDS011;10742;51.816;8.662;2023-04-19T06:24:18;5.27;;;2.27;;
21168;SDS011;10742;51.816;8.662;2023-04-19T06:27:20;6.80;;;2.67;;
21168;SDS011;10742;51.816;8.662;2023-04-19T06:30:23;7.27;;;2.60;;
21168;SDS011;10742;51.816;8.662;2023-04-19T06:33:25;6.77;;;2.57;;
21168;SDS011;10742;51.816;8.662;2023-04-19T06:36:28;8.00;;;2.87;;
21168;SDS011;10742;51.816;8.662;2023-04-19T06:39:30;9.03;;;2.70;;
21168;SDS011;10742;51.816;8.662;2023-04-19T06:42:33;10.23;;;3.20;;
21168;SDS011;10742;51.816;8.662;2023-04-19T06:45:36;6.00;;;2.50;;
21168;SDS011;10742;51.816;8.662;2023-04-19T06:48:38;4.97;;;2.43;;
21168;SDS011;10742;51.816;8.662;2023-04-19T06:51:41;7.07;;;2.33;;
21168;SDS011;10742;51.816;8.662;2023-04-19T06:54:47;7.90;;;2.70;;
21168;SDS011;10742;51.816;8.662;2023-04-19T06:57:52;5.30;;;2.73;;
21168;SDS011;10742;51.816;8.662;2023-04-19T07:00:55;9.57;;;2.67;;
21168;SDS011;10742;51.816;8.662;2023-04-19T07:03:57;5.83;;;2.67;;
21168;SDS011;10742;51.816;8.662;2023-04-19T07:07:00;5.83;;;2.30;;
21168;SDS011;10742;51.816;8.662;2023-04-19T07:10:02;4.40;;;2.60;;
21168;SDS011;10742;51.816;8.662;2023-04-19T07:13:05;5.77;;;2.53;;
21168;SDS011;10742;51.816;8.662;2023-04-19T07:16:07;8.87;;;2.77;;
21168;SDS011;10742;51.816;8.662;2023-04-19T07:19:10;9.37;;;2.50;;
21168;SDS011;10742;51.816;8.662;2023-04-19T07:22:13;5.10;;;2.33;;
21168;SDS011;10742;51.816;8.662;2023-04-19T07:25:16;3.47;;;2.17;;
21168;SDS011;10742;51.816;8.662;2023-04-19T07:28:18;4.03;;;2.20;;
21168;SDS011;10742;51.816;8.662;2023-04-19T07:31:21;5.43;;;2.40;;
21168;SDS011;10742;51.816;8.662;2023-04-19T07:34:25;6.37;;;2.60;;
21168;SDS011;10742;51.816;8.662;2023-04-19T07:37:28;6.73;;;2.00;;
21168;SDS011;10742;51.816;8.662;2023-04-19T07:40:31;6.93;;;2.37;;
21168;SDS011;10742;51.816;8.662;2023-04-19T07:43:34;3.10;;;2.00;;
21168;SDS011;10742;51.816;8.662;2023-04-19T07:46:37;5.87;;;2.30;;
21168;SDS011;10742;51.816;8.662;2023-04-19T07:49:39;4.47;;;1.93;;
21168;SDS011;10742;51.816;8.662;2023-04-19T07:52:42;6.50;;;1.93;;
21168;SDS011;10742;51.816;8.662;2023-04-19T07:55:44;9.80;;;2.37;;
21168;SDS011;10742;51.816;8.662;2023-04-19T07:58:47;5.07;;;2.33;;
21168;SDS011;10742;51.816;8.662;2023-04-19T08:01:51;6.50;;;2.07;;
21168;SDS011;10742;51.816;8.662;2023-04-19T08:04:54;4.80;;;2.00;;
21168;SDS011;10742;51.816;8.662;2023-04-19T08:07:58;3.13;;;2.10;;
21168;SDS011;10742;51.816;8.662;2023-04-19T08:11:01;4.20;;;1.80;;
21168;SDS011;10742;51.816;8.662;2023-04-19T08:14:04;3.17;;;1.90;;
21168;SDS011;10742;51.816;8.662;2023-04-19T08:17:12;7.40;;;2.20;;
21168;SDS011;10742;51.816;8.662;2023-04-19T08:20:22;4.83;;;2.20;;
21168;SDS011;10742;51.816;8.662;2023-04-19T08:23:25;6.77;;;2.17;;
21168;SDS011;10742;51.816;8.662;2023-04-19T08:26:30;3.67;;;2.20;;
21168;SDS011;10742;51.816;8.662;2023-04-19T08:29:32;7.77;;;2.77;;
21168;SDS011;10742;51.816;8.662;2023-04-19T08:32:35;9.27;;;2.70;;
21168;SDS011;10742;51.816;8.662;2023-04-19T08:35:38;5.50;;;2.17;;
21168;SDS011;10742;51.816;8.662;2023-04-19T08:38:43;3.20;;;1.80;;
21168;SDS011;10742;51.816;8.662;2023-04-19T08:41:47;3.37;;;2.20;;
21168;SDS011;10742;51.816;8.662;2023-04-19T08:44:53;5.50;;;2.10;;
21168;SDS011;10742;51.816;8.662;2023-04-19T08:48:14;3.80;;;2.10;;
21168;SDS011;10742;51.816;8.662;2023-04-19T08:51:17;5.67;;;2.20;;
21168;SDS011;10742;51.816;8.662;2023-04-19T08:54:20;5.50;;;2.20;;
21168;SDS011;10742;51.816;8.662;2023-04-19T08:57:25;6.40;;;2.43;;
21168;SDS011;10742;51.816;8.662;2023-04-19T09:00:31;8.53;;;2.70;;
21168;SDS011;10742;51.816;8.662;2023-04-19T09:03:34;6.50;;;2.60;;
21168;SDS011;10742;51.816;8.662;2023-04-19T09:06:48;10.27;;;2.63;;
21168;SDS011;10742;51.816;8.662;2023-04-19T09:10:06;5.23;;;2.80;;
21168;SDS011;10742;51.816;8.662;2023-04-19T09:13:11;7.47;;;2.30;;
21168;SDS011;10742;51.816;8.662;2023-04-19T09:16:23;3.73;;;2.13;;
21168;SDS011;10742;51.816;8.662;2023-04-19T09:19:26;4.63;;;2.40;;
21168;SDS011;10742;51.816;8.662;2023-04-19T09:23:01;4.03;;;2.40;;
21168;SDS011;10742;51.816;8.662;2023-04-19T09:26:06;3.80;;;2.43;;
21168;SDS011;10742;51.816;8.662;2023-04-19T09:29:22;5.80;;;2.50;;
21168;SDS011;10742;51.816;8.662;2023-04-19T09:32:26;4.33;;;2.30;;
21168;SDS011;10742;51.816;8.662;2023-04-19T09:35:41;6.40;;;3.07;;
21168;SDS011;10742;51.816;8.662;2023-04-19T09:38:46;4.00;;;2.60;;
21168;SDS011;10742;51.816;8.662;2023-04-19T09:41:50;6.93;;;2.17;;
21168;SDS011;10742;51.816;8.662;2023-04-19T09:44:57;6.70;;;2.40;;
21168;SDS011;10742;51.816;8.662;2023-04-19T09:48:06;4.10;;;2.40;;
21168;SDS011;10742;51.816;8.662;2023-04-19T09:51:09;12.27;;;3.13;;
21168;SDS011;10742;51.816;8.662;2023-04-19T09:54:14;7.43;;;2.57;;
21168;SDS011;10742;51.816;8.662;2023-04-19T09:57:18;7.23;;;2.50;;
21168;SDS011;10742;51.816;8.662;2023-04-19T10:00:21;4.87;;;2.47;;
21168;SDS011;10742;51.816;8.662;2023-04-19T10:03:24;8.47;;;3.03;;
21168;SDS011;10742;51.816;8.662;2023-04-19T10:06:29;6.57;;;2.77;;
21168;SDS011;10742;51.816;8.662;2023-04-19T10:09:41;7.60;;;2.30;;
21168;SDS011;10742;51.816;8.662;2023-04-19T10:12:51;4.13;;;2.20;;
21168;SDS011;10742;51.816;8.662;2023-04-19T10:15:58;5.77;;;2.90;;
21168;SDS011;10742;51.816;8.662;2023-04-19T10:19:07;8.03;;;2.50;;
21168;SDS011;10742;51.816;8.662;2023-04-19T10:22:11;9.17;;;2.47;;
21168;SDS011;10742;51.816;8.662;2023-04-19T10:25:15;3.73;;;2.20;;
21168;SDS011;10742;51.816;8.662;2023-04-19T10:28:18;6.10;;;2.57;;
21168;SDS011;10742;51.816;8.662;2023-04-19T10:31:20;8.13;;;2.37;;
21168;SDS011;10742;51.816;8.662;2023-04-19T10:34:38;7.00;;;2.40;;
21168;SDS011;10742;51.816;8.662;2023-04-19T10:37:42;5.40;;;2.30;;
21168;SDS011;10742;51.816;8.662;2023-04-19T10:41:09;5.53;;;2.50;;
21168;SDS011;10742;51.816;8.662;2023-04-19T10:44:17;15.70;;;2.50;;
21168;SDS011;10742;51.816;8.662;2023-04-19T10:50:57;8.67;;;2.60;;
21168;SDS011;10742;51.816;8.662;2023-04-19T10:54:04;5.07;;;2.40;;
21168;SDS011;10742;51.816;8.662;2023-04-19T10:57:08;4.53;;;2.27;;
21168;SDS011;10742;51.816;8.662;2023-04-19T11:00:17;7.33;;;2.53;;
21168;SDS011;10742;51.816;8.662;2023-04-19T11:09:52;6.47;;;2.60;;
21168;SDS011;10742;51.816;8.662;2023-04-19T11:12:55;7.50;;;3.00;;
21168;SDS011;10742;51.816;8.662;2023-04-19T11:15:57;5.50;;;2.80;;
21168;SDS011;10742;51.816;8.662;2023-04-19T11:19:00;6.20;;;2.57;;
21168;SDS011;10742;51.816;8.662;2023-04-19T11:22:02;3.90;;;2.30;;
21168;SDS011;10742;51.816;8.662;2023-04-19T11:28:08;6.80;;;2.80;;
21168;SDS011;10742;51.816;8.662;2023-04-19T11:31:10;7.50;;;2.70;;
21168;SDS011;10742;51.816;8.662;2023-04-19T11:34:13;5.30;;;2.50;;
21168;SDS011;10742;51.816;8.662;2023-04-19T11:37:15;8.03;;;2.63;;
21168;SDS011;10742;51.816;8.662;2023-04-19T11:40:18;8.47;;;2.73;;
21168;SDS011;10742;51.816;8.662;2023-04-19T11:43:22;7.80;;;3.00;;
21168;SDS011;10742;51.816;8.662;2023-04-19T11:46:24;5.00;;;2.70;;
21168;SDS011;10742;51.816;8.662;2023-04-19T11:49:28;8.40;;;2.70;;
21168;SDS011;10742;51.816;8.662;2023-04-19T11:52:32;6.10;;;2.80;;
21168;SDS011;10742;51.816;8.662;2023-04-19T11:55:36;3.80;;;2.50;;
21168;SDS011;10742;51.816;8.662;2023-04-19T11:58:45;5.80;;;2.57;;
21168;SDS011;10742;51.816;8.662;2023-04-19T12:01:51;5.93;;;2.73;;
21168;SDS011;10742;51.816;8.662;2023-04-19T12:04:54;6.37;;;2.73;;
21168;SDS011;10742;51.816;8.662;2023-04-19T12:08:03;6.13;;;2.60;;
21168;SDS011;10742;51.816;8.662;2023-04-19T12:11:07;6.23;;;2.50;;
21168;SDS011;10742;51.816;8.662;2023-04-19T12:14:11;5.03;;;2.40;;
21168;SDS011;10742;51.816;8.662;2023-04-19T12:17:15;5.80;;;2.37;;
21168;SDS011;10742;51.816;8.662;2023-04-19T12:23:55;5.60;;;2.63;;
21168;SDS011;10742;51.816;8.662;2023-04-19T12:26:58;5.03;;;2.50;;
21168;SDS011;10742;51.816;8.662;2023-04-19T12:30:01;4.63;;;2.50;;
21168;SDS011;10742;51.816;8.662;2023-04-19T12:33:05;8.87;;;2.63;;
21168;SDS011;10742;51.816;8.662;2023-04-19T12:36:08;5.97;;;2.83;;
21168;SDS011;10742;51.816;8.662;2023-04-19T12:39:11;5.03;;;2.50;;
21168;SDS011;10742;51.816;8.662;2023-04-19T12:42:14;7.87;;;2.83;;
21168;SDS011;10742;51.816;8.662;2023-04-19T12:45:17;5.60;;;2.63;;
21168;SDS011;10742;51.816;8.662;2023-04-19T12:48:20;8.53;;;2.90;;
21168;SDS011;10742;51.816;8.662;2023-04-19T12:51:22;6.43;;;2.70;;
21168;SDS011;10742;51.816;8.662;2023-04-19T12:54:25;8.30;;;2.80;;
21168;SDS011;10742;51.816;8.662;2023-04-19T12:57:27;6.33;;;2.80;;
21168;SDS011;10742;51.816;8.662;2023-04-19T13:00:30;5.07;;;2.20;;
21168;SDS011;10742;51.816;8.662;2023-04-19T13:03:33;6.13;;;2.37;;
21168;SDS011;10742;51.816;8.662;2023-04-19T13:06:37;4.33;;;2.23;;
21168;SDS011;10742;51.816;8.662;2023-04-19T13:09:40;5.50;;;2.40;;
21168;SDS011;10742;51.816;8.662;2023-04-19T13:12:43;8.13;;;2.60;;
21168;SDS011;10742;51.816;8.662;2023-04-19T13:15:45;4.83;;;2.40;;
21168;SDS011;10742;51.816;8.662;2023-04-19T13:18:48;5.93;;;1.90;;
21168;SDS011;10742;51.816;8.662;2023-04-19T13:21:51;2.77;;;2.10;;
21168;SDS011;10742;51.816;8.662;2023-04-19T13:24:54;4.23;;;2.33;;
21168;SDS011;10742;51.816;8.662;2023-04-19T13:27:56;7.23;;;2.17;;
21168;SDS011;10742;51.816;8.662;2023-04-19T13:30:59;5.53;;;2.20;;
21168;SDS011;10742;51.816;8.662;2023-04-19T13:34:01;4.97;;;2.27;;
21168;SDS011;10742;51.816;8.662;2023-04-19T13:37:04;2.67;;;1.87;;
21168;SDS011;10742;51.816;8.662;2023-04-19T13:40:06;8.37;;;2.30;;
21168;SDS011;10742;51.816;8.662;2023-04-19T13:43:18;6.70;;;2.27;;
21168;SDS011;10742;51.816;8.662;2023-04-19T13:46:21;5.57;;;2.00;;
21168;SDS011;10742;51.816;8.662;2023-04-19T13:49:24;6.57;;;2.37;;
21168;SDS011;10742;51.816;8.662;2023-04-19T13:52:27;4.70;;;2.10;;
21168;SDS011;10742;51.816;8.662;2023-04-19T13:55:29;4.20;;;2.20;;
21168;SDS011;10742;51.816;8.662;2023-04-19T13:58:32;7.23;;;2.10;;
21168;SDS011;10742;51.816;8.662;2023-04-19T14:01:34;5.13;;;2.63;;
21168;SDS011;10742;51.816;8.662;2023-04-19T14:04:37;3.57;;;2.20;;
21168;SDS011;10742;51.816;8.662;2023-04-19T14:07:40;13.40;;;2.47;;
21168;SDS011;10742;51.816;8.662;2023-04-19T14:10:42;5.63;;;2.10;;
21168;SDS011;10742;51.816;8.662;2023-04-19T14:13:45;4.17;;;2.10;;
21168;SDS011;10742;51.816;8.662;2023-04-19T14:16:49;4.50;;;2.10;;
21168;SDS011;10742;51.816;8.662;2023-04-19T14:19:51;9.93;;;2.23;;
21168;SDS011;10742;51.816;8.662;2023-04-19T14:22:54;4.23;;;2.03;;
21168;SDS011;10742;51.816;8.662;2023-04-19T14:25:59;6.07;;;2.20;;
21168;SDS011;10742;51.816;8.662;2023-04-19T14:29:02;4.47;;;2.40;;
21168;SDS011;10742;51.816;8.662;2023-04-19T14:32:05;7.43;;;2.17;;
21168;SDS011;10742;51.816;8.662;2023-04-19T14:35:22;5.50;;;2.67;;
21168;SDS011;10742;51.816;8.662;2023-04-19T14:38:24;4.73;;;2.20;;
21168;SDS011;10742;51.816;8.662;2023-04-19T14:41:27;5.17;;;2.30;;
21168;SDS011;10742;51.816;8.662;2023-04-19T14:44:30;8.73;;;2.70;;
21168;SDS011;10742;51.816;8.662;2023-04-19T14:47:32;5.37;;;2.43;;
21168;SDS011;10742;51.816;8.662;2023-04-19T14:50:35;5.60;;;2.70;;
21168;SDS011;10742;51.816;8.662;2023-04-19T14:53:38;10.33;;;3.17;;
21168;SDS011;10742;51.816;8.662;2023-04-19T14:56:40;7.00;;;2.73;;
21168;SDS011;10742;51.816;8.662;2023-04-19T14:59:42;7.57;;;2.50;;
21168;SDS011;10742;51.816;8.662;2023-04-19T15:02:45;5.97;;;2.67;;
21168;SDS011;10742;51.816;8.662;2023-04-19T15:05:47;5.70;;;2.97;;
21168;SDS011;10742;51.816;8.662;2023-04-19T15:08:50;6.87;;;2.80;;
21168;SDS011;10742;51.816;8.662;2023-04-19T15:11:52;6.80;;;2.73;;
21168;SDS011;10742;51.816;8.662;2023-04-19T15:14:55;5.23;;;2.60;;
21168;SDS011;10742;51.816;8.662;2023-04-19T15:17:58;6.67;;;2.73;;
21168;SDS011;10742;51.816;8.662;2023-04-19T15:21:03;5.23;;;2.70;;
21168;SDS011;10742;51.816;8.662;2023-04-19T15:24:06;4.73;;;2.50;;
21168;SDS011;10742;51.816;8.662;2023-04-19T15:27:09;6.27;;;2.80;;
21168;SDS011;10742;51.816;8.662;2023-04-19T15:30:11;10.67;;;3.00;;
21168;SDS011;10742;51.816;8.662;2023-04-19T15:33:14;5.77;;;2.90;;
21168;SDS011;10742;51.816;8.662;2023-04-19T15:36:16;6.50;;;2.40;;
21168;SDS011;10742;51.816;8.662;2023-04-19T15:39:19;4.50;;;2.50;;
21168;SDS011;10742;51.816;8.662;2023-04-19T15:42:21;5.57;;;2.60;;
21168;SDS011;10742;51.816;8.662;2023-04-19T15:45:24;7.07;;;3.03;;
21168;SDS011;10742;51.816;8.662;2023-04-19T15:48:27;6.40;;;2.77;;
21168;SDS011;10742;51.816;8.662;2023-04-19T15:51:29;8.50;;;2.83;;
21168;SDS011;10742;51.816;8.662;2023-04-19T15:54:32;5.23;;;2.70;;
21168;SDS011;10742;51.816;8.662;2023-04-19T15:57:34;7.60;;;2.60;;
21168;SDS011;10742;51.816;8.662;2023-04-19T16:00:37;8.10;;;3.10;;
21168;SDS011;10742;51.816;8.662;2023-04-19T16:03:40;5.97;;;2.53;;
21168;SDS011;10742;51.816;8.662;2023-04-19T16:06:42;7.63;;;3.00;;
21168;SDS011;10742;51.816;8.662;2023-04-19T16:09:45;9.53;;;3.10;;
21168;SDS011;10742;51.816;8.662;2023-04-19T16:12:47;3.07;;;2.40;;
21168;SDS011;10742;51.816;8.662;2023-04-19T16:15:50;5.40;;;2.47;;
21168;SDS011;10742;51.816;8.662;2023-04-19T16:18:52;7.00;;;2.60;;
21168;SDS011;10742;51.816;8.662;2023-04-19T16:21:54;4.10;;;2.67;;
21168;SDS011;10742;51.816;8.662;2023-04-19T16:24:57;7.17;;;2.90;;
21168;SDS011;10742;51.816;8.662;2023-04-19T16:28:00;5.73;;;2.73;;
21168;SDS011;10742;51.816;8.662;2023-04-19T16:31:02;7.67;;;2.90;;
21168;SDS011;10742;51.816;8.662;2023-04-19T16:34:05;10.10;;;3.00;;
21168;SDS011;10742;51.816;8.662;2023-04-19T16:37:07;8.03;;;3.20;;
21168;SDS011;10742;51.816;8.662;2023-04-19T16:40:10;8.50;;;3.03;;
21168;SDS011;10742;51.816;8.662;2023-04-19T16:43:13;6.30;;;3.07;;
21168;SDS011;10742;51.816;8.662;2023-04-19T16:46:16;8.87;;;3.10;;
21168;SDS011;10742;51.816;8.662;2023-04-19T16:49:18;4.47;;;2.70;;
21168;SDS011;10742;51.816;8.662;2023-04-19T16:52:26;7.17;;;2.93;;
21168;SDS011;10742;51.816;8.662;2023-04-19T16:55:30;8.70;;;2.83;;
21168;SDS011;10742;51.816;8.662;2023-04-19T16:58:33;6.10;;;3.10;;
21168;SDS011;10742;51.816;8.662;2023-04-19T17:01:35;9.33;;;3.47;;
21168;SDS011;10742;51.816;8.662;2023-04-19T17:04:38;7.47;;;2.93;;
21168;SDS011;10742;51.816;8.662;2023-04-19T17:07:41;7.17;;;2.70;;
21168;SDS011;10742;51.816;8.662;2023-04-19T17:10:44;7.30;;;2.90;;
21168;SDS011;10742;51.816;8.662;2023-04-19T17:13:46;10.30;;;3.07;;
21168;SDS011;10742;51.816;8.662;2023-04-19T17:16:49;5.10;;;2.57;;
21168;SDS011;10742;51.816;8.662;2023-04-19T17:19:52;8.47;;;2.90;;
21168;SDS011;10742;51.816;8.662;2023-04-19T17:22:56;5.00;;;2.70;;
21168;SDS011;10742;51.816;8.662;2023-04-19T17:26:00;3.80;;;2.33;;
21168;SDS011;10742;51.816;8.662;2023-04-19T17:29:02;12.83;;;2.60;;
21168;SDS011;10742;51.816;8.662;2023-04-19T17:32:05;5.77;;;2.90;;
21168;SDS011;10742;51.816;8.662;2023-04-19T17:35:09;7.20;;;2.77;;
21168;SDS011;10742;51.816;8.662;2023-04-19T17:38:12;6.10;;;2.53;;
21168;SDS011;10742;51.816;8.662;2023-04-19T17:41:14;8.10;;;2.80;;
21168;SDS011;10742;51.816;8.662;2023-04-19T17:44:17;6.40;;;2.83;;
21168;SDS011;10742;51.816;8.662;2023-04-19T17:47:19;6.70;;;2.67;;
21168;SDS011;10742;51.816;8.662;2023-04-19T17:50:22;6.97;;;2.90;;
21168;SDS011;10742;51.816;8.662;2023-04-19T17:53:25;6.57;;;2.70;;
21168;SDS011;10742;51.816;8.662;2023-04-19T17:56:27;15.77;;;4.17;;
21168;SDS011;10742;51.816;8.662;2023-04-19T17:59:30;10.13;;;3.10;;
21168;SDS011;10742;51.816;8.662;2023-04-19T18:02:32;14.00;;;3.53;;
21168;SDS011;10742;51.816;8.662;2023-04-19T18:05:41;9.87;;;3.30;;
21168;SDS011;10742;51.816;8.662;2023-04-19T18:08:43;8.60;;;2.97;;
21168;SDS011;10742;51.816;8.662;2023-04-19T18:11:46;11.07;;;3.07;;
21168;SDS011;10742;51.816;8.662;2023-04-19T18:14:49;7.00;;;3.20;;
21168;SDS011;10742;51.816;8.662;2023-04-19T18:17:51;8.77;;;2.50;;
21168;SDS011;10742;51.816;8.662;2023-04-19T18:20:54;6.37;;;3.00;;
21168;SDS011;10742;51.816;8.662;2023-04-19T18:23:57;12.67;;;2.83;;
21168;SDS011;10742;51.816;8.662;2023-04-19T18:26:59;7.97;;;3.07;;
21168;SDS011;10742;51.816;8.662;2023-04-19T18:30:04;3.13;;;2.13;;
21168;SDS011;10742;51.816;8.662;2023-04-19T18:33:07;7.83;;;2.50;;
21168;SDS011;10742;51.816;8.662;2023-04-19T18:36:10;9.97;;;2.80;;
21168;SDS011;10742;51.816;8.662;2023-04-19T18:39:12;9.00;;;2.50;;
21168;SDS011;10742;51.816;8.662;2023-04-19T18:42:15;8.47;;;2.87;;
21168;SDS011;10742;51.816;8.662;2023-04-19T18:45:17;6.50;;;2.87;;